Time;durP1;ratioP1;P1;durP2;ratioP2;P2;SDS_P1;SDS_P2;PMS_P1;PMS_P2;Temp;Humidity;BMP_temperature;BMP_pressure;BME280_temperature;BME280_humidity;BME280_pressure;Samples;Min_cycle;Max_cycle;Signal;HPM_P1;HPM_P2
2022/12/17 13:06:48;;;;;;;16.75;6.55;;;26.80;83.30;;;;;;5086263;28;20336;-53
2022/12/17 13:09:14;;;;;;;14.18;6.75;;;26.90;83.20;;;;;;5086387;28;20031;-52
2022/12/17 13:11:52;;;;;;;12.50;6.07;;;26.90;83.10;;;;;;5086029;28;20040;-53
2022/12/17 13:14:30;;;;;;;11.48;6.07;;;26.90;83.10;;;;;;5086344;28;20082;-53
2022/12/17 13:17:06;;;;;;;12.63;5.75;;;26.90;82.90;;;;;;5086015;28;20034;-54
2022/12/17 13:19:40;;;;;;;12.32;5.25;;;26.90;82.80;;;;;;5086318;28;20356;-54
2022/12/17 13:22:26;;;;;;;13.20;4.97;;;27.00;82.70;;;;;;5086006;28;20347;-54
2022/12/17 13:25:13;;;;;;;9.27;4.80;;;27.00;82.60;;;;;;5086209;28;20213;-53
2022/12/17 13:27:41;;;;;;;10.93;4.40;;;27.00;82.50;;;;;;5085848;28;20029;-54
2022/12/17 13:30:31;;;;;;;7.43;3.95;;;27.00;82.60;;;;;;5086207;28;20361;-54
2022/12/17 13:33:17;;;;;;;8.00;4.38;;;27.10;82.70;;;;;;5085956;28;20025;-52
2022/12/17 13:36:08;;;;;;;9.27;4.43;;;27.10;82.60;;;;;;5085591;28;20216;-54
2022/12/17 13:39:21;;;;;;;7.25;3.83;;;27.10;82.70;;;;;;5085811;28;20036;-53
2022/12/17 13:41:52;;;;;;;;;;;27.10;82.70;;;;;;5024636;28;20025;-53
2022/12/17 13:44:43;;;;;;;9.80;4.03;;;27.20;82.80;;;;;;5080053;28;19915;-52
2022/12/17 13:47:32;;;;;;;6.17;3.80;;;27.20;82.80;;;;;;5085419;28;20068;-51
2022/12/17 13:50:02;;;;;;;10.90;3.55;;;27.20;82.80;;;;;;5085717;28;20040;-53
2022/12/17 13:52:32;;;;;;;10.75;3.63;;;27.20;82.80;;;;;;5085269;28;20048;-50
2022/12/17 13:55:16;;;;;;;7.28;3.80;;;27.30;82.80;;;;;;5085672;28;20033;-53
2022/12/17 13:57:46;;;;;;;6.85;3.30;;;27.30;82.70;;;;;;5085379;28;20039;-52
2022/12/17 14:00:21;;;;;;;8.45;3.92;;;27.30;82.80;;;;;;5085659;28;20396;-54
2022/12/17 14:02:49;;;;;;;7.55;4.03;;;27.30;82.70;;;;;;5085356;28;20028;-53
2022/12/17 14:05:37;;;;;;;8.77;3.63;;;27.30;82.60;;;;;;5085383;28;20240;-53
2022/12/17 14:08:05;;;;;;;7.25;3.58;;;27.40;82.40;;;;;;5085155;28;20020;-54
2022/12/17 14:10:32;;;;;;;7.60;3.50;;;27.40;82.30;;;;;;5085385;28;20218;-52
2022/12/17 14:13:13;;;;;;;6.78;3.60;;;27.40;82.30;;;;;;5084986;28;20265;-55
2022/12/17 14:15:46;;;;;;;8.98;3.97;;;27.40;82.40;;;;;;5085350;28;20231;-51
2022/12/17 14:18:18;;;;;;;5.85;3.63;;;27.50;82.40;;;;;;5084992;28;20058;-53
2022/12/17 14:20:45;;;;;;;9.18;3.72;;;27.50;82.40;;;;;;5084863;28;20047;-53
2022/12/17 14:23:20;;;;;;;14.88;4.13;;;27.50;82.10;;;;;;5084665;28;20308;-53
2022/12/17 14:25:48;;;;;;;9.52;4.15;;;27.50;81.80;;;;;;5085233;28;20043;-53
2022/12/17 14:28:35;;;;;;;6.97;3.83;;;27.50;81.90;;;;;;5084735;28;20028;-51
2022/12/17 14:31:14;;;;;;;8.73;4.00;;;27.60;82.60;;;;;;5084714;28;20036;-54
2022/12/17 14:33:42;;;;;;;10.88;3.63;;;27.50;82.10;;;;;;5084423;28;20096;-54
2022/12/17 14:36:20;;;;;;;7.80;3.90;;;27.50;82.20;;;;;;5083476;28;20224;-55
2022/12/17 14:39:01;;;;;;;9.18;4.43;;;27.60;82.30;;;;;;5084433;28;20267;-51
2022/12/17 14:44:26;;;;;;;9.90;4.22;;;27.60;82.30;;;;;;5084729;28;20055;-54
2022/12/17 14:47:13;;;;;;;8.48;4.15;;;27.60;82.30;;;;;;5084237;28;20041;-54
2022/12/17 14:49:53;;;;;;;8.60;4.75;;;27.60;82.30;;;;;;5084553;28;20243;-54
2022/12/17 14:52:33;;;;;;;6.85;4.30;;;27.60;82.20;;;;;;5084251;28;20028;-53
2022/12/17 14:55:02;;;;;;;8.85;4.68;;;27.70;82.90;;;;;;5084550;28;20035;-53
2022/12/17 14:57:28;;;;;;;8.25;4.20;;;27.70;82.50;;;;;;5084273;28;20029;-53
2022/12/17 14:59:55;;;;;;;9.93;4.90;;;27.70;82.50;;;;;;5084398;28;20043;-53
2022/12/17 15:02:29;;;;;;;10.25;5.25;;;27.70;82.40;;;;;;5084112;28;20023;-56
2022/12/17 15:05:01;;;;;;;10.80;5.18;;;27.70;82.50;;;;;;5084412;28;20056;-53
2022/12/17 15:07:30;;;;;;;7.60;5.00;;;27.80;82.70;;;;;;5082950;28;20048;-55
2022/12/17 15:09:57;;;;;;;10.43;5.43;;;27.80;82.70;;;;;;5084370;28;20032;-54
2022/12/17 15:12:24;;;;;;;9.20;5.00;;;27.80;82.70;;;;;;5083936;28;20074;-54
2022/12/17 15:14:51;;;;;;;11.38;5.20;;;27.80;82.80;;;;;;5084288;28;20052;-53
2022/12/17 15:17:17;;;;;;;14.98;5.97;;;27.80;82.80;;;;;;5084035;28;20029;-54
2022/12/17 15:19:44;;;;;;;10.80;5.40;;;27.80;82.30;;;;;;5084301;28;20101;-55
2022/12/17 15:22:17;;;;;;;13.85;6.10;;;27.90;82.50;;;;;;5083753;28;20059;-54
2022/12/17 15:24:44;;;;;;;14.80;6.32;;;27.90;82.50;;;;;;5084041;28;20033;-53
2022/12/17 15:27:15;;;;;;;21.08;6.85;;;27.90;82.60;;;;;;5083758;28;20024;-50
2022/12/17 15:29:42;;;;;;;21.02;6.43;;;27.90;82.70;;;;;;5084022;28;20032;-54
2022/12/17 15:32:21;;;;;;;14.57;6.50;;;28.00;82.80;;;;;;5083803;28;20012;-55
2022/12/17 15:34:49;;;;;;;14.20;6.20;;;28.00;82.90;;;;;;5083869;28;20074;-60
2022/12/17 15:37:16;;;;;;;15.85;6.63;;;28.00;82.90;;;;;;5083737;28;20028;-55
2022/12/17 15:39:43;;;;;;;17.40;6.80;;;28.00;82.90;;;;;;5083944;28;20037;-55
2022/12/17 15:44:55;;;;;;;15.73;6.55;;;28.10;83.00;;;;;;5084263;28;20347;-59
2022/12/17 15:47:21;;;;;;;18.48;6.85;;;28.10;82.90;;;;;;5083472;28;20111;-54
2022/12/17 15:49:48;;;;;;;11.68;6.85;;;28.10;82.90;;;;;;5083870;28;20040;-54
2022/12/17 15:52:14;;;;;;;18.42;7.45;;;28.10;82.90;;;;;;5084686;28;20016;-55
2022/12/17 15:54:42;;;;;;;18.17;7.25;;;28.10;82.90;;;;;;5087775;28;20032;-52
2022/12/17 15:57:08;;;;;;;16.85;7.07;;;28.10;82.80;;;;;;5087756;28;20024;-53
2022/12/17 15:59:35;;;;;;;21.50;6.82;;;28.20;82.90;;;;;;5087833;28;20197;-53
2022/12/17 16:02:02;;;;;;;17.63;7.60;;;28.20;82.90;;;;;;5087493;28;20056;-53
2022/12/17 16:04:28;;;;;;;18.00;7.15;;;28.20;82.70;;;;;;5087665;28;20043;-57
2022/12/17 16:06:55;;;;;;;14.63;7.55;;;28.20;82.20;;;;;;5087499;28;20024;-54
2022/12/17 16:09:24;;;;;;;17.52;7.20;;;28.30;82.10;;;;;;5087450;28;20028;-55
2022/12/17 16:11:57;;;;;;;19.67;7.03;;;28.30;81.60;;;;;;5087287;28;20339;-53
2022/12/17 16:14:23;;;;;;;17.17;7.43;;;28.30;81.70;;;;;;5087524;28;20104;-54
2022/12/17 16:16:51;;;;;;;17.83;7.28;;;28.30;81.50;;;;;;5087132;28;20027;-56
2022/12/17 16:19:17;;;;;;;16.85;7.90;;;28.30;81.50;;;;;;5086130;28;20021;-56
2022/12/17 16:21:44;;;;;;;17.17;7.15;;;28.40;81.50;;;;;;5086015;28;20210;-55
2022/12/17 16:24:11;;;;;;;19.77;7.30;;;28.40;81.50;;;;;;5087007;28;20035;-54
2022/12/17 16:26:37;;;;;;;17.75;7.40;;;28.40;81.60;;;;;;5087120;28;20326;-56
2022/12/17 16:29:04;;;;;;;20.30;7.90;;;28.50;81.70;;;;;;5087067;28;20036;-54
2022/12/17 16:31:31;;;;;;;19.95;7.70;;;28.50;81.70;;;;;;5086711;28;20224;-54
2022/12/17 16:33:57;;;;;;;28.65;8.00;;;28.50;81.70;;;;;;5087002;28;20017;-54
2022/12/17 16:36:25;;;;;;;23.92;8.25;;;28.50;81.80;;;;;;5087014;28;20062;-53
2022/12/17 16:38:54;;;;;;;19.58;7.20;;;28.60;81.90;;;;;;5086690;28;20097;-54
2022/12/17 16:41:21;;;;;;;15.40;7.70;;;28.60;81.80;;;;;;5086929;28;20091;-54
2022/12/17 16:43:48;;;;;;;15.73;7.72;;;28.60;81.40;;;;;;5086668;28;20096;-53
2022/12/17 16:46:37;;;;;;;16.23;7.63;;;28.60;81.40;;;;;;5086579;28;20024;-53
2022/12/17 16:49:15;;;;;;;19.33;7.68;;;28.60;81.50;;;;;;5085342;28;20202;-53
2022/12/17 16:51:43;;;;;;;22.90;7.97;;;28.70;81.60;;;;;;5085628;28;20066;-56
2022/12/17 16:54:16;;;;;;;22.73;8.07;;;28.70;81.50;;;;;;5085495;28;20044;-57
2022/12/17 16:56:44;;;;;;;24.75;8.93;;;28.70;81.40;;;;;;5085233;28;20019;-54
2022/12/17 16:59:12;;;;;;;27.35;8.35;;;28.80;81.50;;;;;;5085538;28;20104;-55
2022/12/17 17:01:40;;;;;;;22.27;8.77;;;28.80;81.50;;;;;;5085735;28;20016;-57
2022/12/17 17:04:08;;;;;;;23.88;7.93;;;28.80;81.50;;;;;;5084936;28;20024;-54
2022/12/17 17:06:46;;;;;;;18.92;8.57;;;28.80;81.30;;;;;;5085239;28;20091;-54
2022/12/17 17:09:13;;;;;;;24.50;8.82;;;28.80;81.40;;;;;;5085325;28;20028;-54
2022/12/17 17:11:40;;;;;;;24.30;8.45;;;28.80;81.40;;;;;;5084958;28;20073;-55
2022/12/17 17:14:07;;;;;;;18.42;8.10;;;28.80;81.40;;;;;;5085220;28;20288;-56
2022/12/17 17:16:34;;;;;;;19.75;8.35;;;28.90;81.20;;;;;;5085248;28;20020;-52
2022/12/17 17:19:01;;;;;;;21.95;7.85;;;28.90;81.10;;;;;;5084895;28;20032;-55
2022/12/17 17:21:30;;;;;;;18.50;8.10;;;28.90;81.00;;;;;;5085147;28;20012;-56
2022/12/17 17:24:02;;;;;;;18.95;7.65;;;28.90;81.10;;;;;;5084933;28;20074;-56
2022/12/17 17:26:32;;;;;;;14.38;7.57;;;28.90;81.00;;;;;;5084941;28;20083;-54
2022/12/17 17:29:00;;;;;;;18.38;7.43;;;29.00;81.00;;;;;;5085159;28;20251;-54
2022/12/17 17:31:27;;;;;;;14.20;7.50;;;29.00;81.00;;;;;;5084601;28;20309;-54
2022/12/17 17:33:56;;;;;;;19.42;8.18;;;29.00;80.90;;;;;;5084906;28;20083;-53
2022/12/17 17:36:29;;;;;;;19.05;7.90;;;29.00;80.50;;;;;;5084811;28;20095;-54
2022/12/17 17:38:58;;;;;;;15.85;6.90;;;29.00;80.60;;;;;;5084630;28;20021;-54
2022/12/17 17:41:27;;;;;;;18.38;7.97;;;29.00;80.60;;;;;;5084836;28;20051;-54
2022/12/17 17:43:58;;;;;;;14.18;7.15;;;29.10;80.40;;;;;;5084638;28;20023;-53
2022/12/17 17:49:13;;;;;;;18.45;8.25;;;29.10;80.50;;;;;;5121824;27;20761;-53
2022/12/17 17:51:42;;;;;;;14.80;7.70;;;29.10;80.50;;;;;;5122087;28;20024;-53
2022/12/17 17:54:08;;;;;;;15.02;7.60;;;29.10;80.40;;;;;;5121772;28;20080;-53
2022/12/17 17:56:38;;;;;;;12.70;7.35;;;29.10;80.50;;;;;;5121736;28;20042;-54
2022/12/17 17:59:07;;;;;;;13.88;7.15;;;29.10;80.60;;;;;;5122001;28;20067;-56
2022/12/17 18:01:37;;;;;;;15.10;7.55;;;29.10;80.60;;;;;;5121760;28;20024;-55
2022/12/17 18:04:05;;;;;;;14.00;7.90;;;29.10;80.50;;;;;;5121493;28;20070;-52
2022/12/17 18:06:32;;;;;;;14.40;8.32;;;29.10;80.40;;;;;;5121557;28;20024;-53
2022/12/17 18:08:59;;;;;;;13.55;7.45;;;29.10;80.30;;;;;;5121956;28;20062;-53
2022/12/17 18:11:28;;;;;;;16.33;7.28;;;29.10;80.40;;;;;;5121361;28;20018;-53
2022/12/17 18:13:56;;;;;;;13.25;7.78;;;29.10;80.30;;;;;;5121997;28;20274;-53
2022/12/17 18:16:27;;;;;;;11.85;6.72;;;29.20;80.60;;;;;;5121286;28;20047;-60
2022/12/17 18:18:59;;;;;;;14.98;7.38;;;29.10;80.40;;;;;;5121650;28;20036;-51
2022/12/17 18:21:28;;;;;;;15.95;7.72;;;29.10;80.50;;;;;;5121308;28;20232;-52
2022/12/17 18:24:00;;;;;;;17.33;8.05;;;29.20;80.40;;;;;;5121737;28;20083;-54
2022/12/17 18:26:29;;;;;;;16.50;7.53;;;29.20;80.30;;;;;;5121185;28;20400;-56
2022/12/17 18:29:03;;;;;;;19.77;8.18;;;29.20;80.30;;;;;;5120934;28;20266;-54
2022/12/17 18:31:30;;;;;;;16.75;7.78;;;29.20;79.80;;;;;;5120939;28;20031;-59
2022/12/17 18:34:00;;;;;;;16.70;7.38;;;29.20;79.80;;;;;;5121521;28;20023;-53
2022/12/17 18:36:36;;;;;;;14.82;7.43;;;29.20;79.50;;;;;;5121099;28;20019;-54
2022/12/17 18:39:17;;;;;;;17.00;7.18;;;29.20;79.70;;;;;;5121036;28;20023;-53
2022/12/17 18:44:31;;;;;;;14.43;7.50;;;29.20;79.40;;;;;;5120944;28;20212;-53
2022/12/17 18:46:58;;;;;;;17.15;7.32;;;29.20;79.50;;;;;;5120479;28;20232;-54
2022/12/17 18:49:26;;;;;;;15.77;7.45;;;29.20;79.60;;;;;;5120576;28;20330;-53
2022/12/17 18:51:54;;;;;;;17.08;7.65;;;29.20;79.50;;;;;;5120758;28;20042;-54
2022/12/17 18:54:26;;;;;;;16.85;7.72;;;29.20;79.70;;;;;;5120656;28;20099;-53
2022/12/17 18:56:53;;;;;;;;;;;29.20;79.60;;;;;;5120855;28;20020;-55
2022/12/17 18:59:22;;;;;;;13.10;7.57;;;29.30;79.30;;;;;;5112258;28;20171;-53
2022/12/17 19:01:49;;;;;;;15.23;7.47;;;29.20;79.40;;;;;;5106881;28;20024;-52
2022/12/17 19:04:18;;;;;;;17.95;7.90;;;29.30;79.40;;;;;;5106732;28;20024;-52
2022/12/17 19:06:48;;;;;;;14.40;7.68;;;29.20;79.50;;;;;;5106709;28;20070;-56
2022/12/17 19:09:23;;;;;;;18.40;8.05;;;29.30;79.60;;;;;;5106800;28;20357;-54
2022/12/17 19:11:50;;;;;;;14.98;8.00;;;29.20;79.60;;;;;;5106794;28;20054;-54
2022/12/17 19:14:20;;;;;;;13.63;7.55;;;29.20;79.70;;;;;;5106698;28;20016;-57
2022/12/17 19:16:48;;;;;;;15.77;7.80;;;29.20;79.60;;;;;;5106387;28;20052;-55
2022/12/17 19:19:15;;;;;;;15.65;7.80;;;29.30;79.00;;;;;;5106618;28;20048;-53
2022/12/17 19:21:44;;;;;;;19.55;7.32;;;29.30;79.10;;;;;;5106492;28;20016;-53
2022/12/17 19:24:13;;;;;;;13.40;7.35;;;29.30;78.90;;;;;;5106393;28;20032;-57
2022/12/17 19:26:40;;;;;;;15.68;7.10;;;29.30;79.00;;;;;;5105148;28;20023;-53
2022/12/17 19:29:09;;;;;;;15.10;7.57;;;29.30;79.10;;;;;;5106394;28;20324;-54
2022/12/17 19:31:36;;;;;;;14.57;7.07;;;29.30;79.20;;;;;;5106059;28;20095;-51
2022/12/17 19:34:05;;;;;;;13.25;7.22;;;29.30;79.30;;;;;;5106348;28;20254;-54
2022/12/17 19:36:33;;;;;;;23.63;7.30;;;29.30;79.20;;;;;;5106194;28;20028;-54
2022/12/17 19:39:03;;;;;;;13.07;7.03;;;29.40;79.20;;;;;;5105978;28;20095;-54
2022/12/17 19:41:33;;;;;;;14.52;7.50;;;29.30;79.00;;;;;;5106059;28;20231;-54
2022/12/17 19:44:06;;;;;;;15.10;7.35;;;29.40;79.10;;;;;;5106234;28;20266;-51
2022/12/17 19:46:34;;;;;;;16.65;7.20;;;29.40;79.10;;;;;;5106091;28;20036;-54
2022/12/17 19:49:01;;;;;;;12.45;7.40;;;29.40;79.20;;;;;;5105767;28;20044;-55
2022/12/17 19:51:30;;;;;;;16.20;7.72;;;29.40;79.30;;;;;;5105814;28;20026;-54
2022/12/17 19:53:57;;;;;;;19.65;7.57;;;29.40;79.30;;;;;;5106385;28;20038;-54
2022/12/17 19:56:26;;;;;;;15.23;6.97;;;29.40;79.30;;;;;;5105840;28;20048;-53
2022/12/17 19:58:57;;;;;;;19.67;7.35;;;29.40;79.40;;;;;;5106453;28;20093;-54
2022/12/17 20:01:29;;;;;;;22.97;7.33;;;29.40;79.20;;;;;;5105722;28;20083;-53
2022/12/17 20:03:57;;;;;;;20.50;6.50;;;29.40;79.30;;;;;;5106098;28;20524;-54
2022/12/17 20:06:26;;;;;;;13.95;6.78;;;29.40;79.30;;;;;;5105466;28;20035;-57
2022/12/17 20:08:53;;;;;;;17.35;6.80;;;29.40;79.40;;;;;;5105866;28;20039;-57
2022/12/17 20:11:33;;;;;;;18.48;7.10;;;29.40;79.20;;;;;;5104361;28;20036;-55
2022/12/17 20:14:04;;;;;;;10.70;6.53;;;29.40;79.50;;;;;;5105296;28;20032;-54
2022/12/17 20:16:34;;;;;;;16.25;7.30;;;29.40;79.60;;;;;;5105513;28;20068;-52
2022/12/17 20:19:02;;;;;;;13.60;7.07;;;29.40;79.70;;;;;;5105196;28;20032;-54
2022/12/17 20:21:29;;;;;;;13.95;6.90;;;29.40;79.80;;;;;;5105314;28;20320;-54
2022/12/17 20:23:56;;;;;;;14.73;6.60;;;29.40;79.90;;;;;;5105728;28;20047;-55
2022/12/17 20:26:23;;;;;;;14.68;7.05;;;29.40;79.70;;;;;;5104954;28;20111;-54
2022/12/17 20:28:49;;;;;;;16.17;7.07;;;29.40;79.80;;;;;;5105579;28;20036;-55
2022/12/17 20:31:17;;;;;;;15.20;6.72;;;29.40;79.60;;;;;;5105104;28;20024;-54
2022/12/17 20:33:44;;;;;;;15.23;7.13;;;29.40;79.70;;;;;;5105390;28;20032;-53
2022/12/17 20:36:14;;;;;;;22.73;7.38;;;29.40;79.70;;;;;;5105075;28;20016;-55
2022/12/17 20:38:41;;;;;;;20.88;7.38;;;29.40;79.80;;;;;;5105513;28;20024;-54
2022/12/17 20:41:12;;;;;;;25.23;7.97;;;29.40;79.60;;;;;;5104823;28;20032;-57
2022/12/17 20:43:39;;;;;;;22.88;7.32;;;29.40;79.50;;;;;;5103969;28;20063;-52
2022/12/17 20:46:10;;;;;;;13.85;7.00;;;29.40;79.50;;;;;;5104822;28;20035;-53
2022/12/17 20:48:39;;;;;;;19.77;7.45;;;29.40;79.60;;;;;;5104486;28;20052;-53
2022/12/17 20:51:11;;;;;;;19.92;7.53;;;29.40;79.60;;;;;;5104701;28;20024;-53
2022/12/17 20:53:39;;;;;;;20.60;6.97;;;29.40;79.70;;;;;;5105002;28;20067;-53
2022/12/17 20:56:17;;;;;;;17.30;7.30;;;29.40;79.60;;;;;;5104644;28;20114;-53
2022/12/17 20:58:44;;;;;;;15.50;7.00;;;29.40;79.70;;;;;;5104490;28;20038;-52
2022/12/17 21:01:19;;;;;;;20.58;7.63;;;29.40;79.80;;;;;;5104439;28;20051;-57
2022/12/17 21:03:50;;;;;;;31.90;9.20;;;29.40;79.80;;;;;;5105083;28;20043;-54
2022/12/17 21:06:21;;;;;;;35.03;9.18;;;29.30;80.00;;;;;;5104306;28;20023;-56
2022/12/17 21:08:50;;;;;;;32.50;9.30;;;29.30;79.90;;;;;;5104831;28;20103;-54
2022/12/17 21:11:18;;;;;;;33.65;9.27;;;29.30;80.10;;;;;;5104311;28;20016;-54
2022/12/17 21:13:48;;;;;;;43.05;9.40;;;29.30;79.90;;;;;;5104663;28;20087;-57
2022/12/17 21:16:20;;;;;;;39.25;9.63;;;29.30;80.10;;;;;;5104543;28;20035;-55
2022/12/17 21:18:48;;;;;;;35.92;9.55;;;29.30;80.20;;;;;;5104580;28;20343;-57
2022/12/17 21:21:21;;;;;;;35.78;8.50;;;29.30;80.30;;;;;;5104263;28;20035;-58
2022/12/17 21:23:49;;;;;;;36.42;9.75;;;29.30;80.40;;;;;;5104401;28;20031;-55
2022/12/17 21:26:22;;;;;;;39.47;8.70;;;29.30;80.30;;;;;;5104139;28;20034;-55
2022/12/17 21:28:52;;;;;;;26.08;7.90;;;29.30;80.50;;;;;;5104765;28;20246;-56
2022/12/17 21:31:27;;;;;;;28.88;7.72;;;29.20;80.20;;;;;;5104184;28;20336;-56
2022/12/17 21:33:56;;;;;;;22.77;7.75;;;29.30;80.10;;;;;;5104609;28;20091;-54
2022/12/17 21:36:24;;;;;;;21.52;7.53;;;29.30;80.00;;;;;;5104327;28;20264;-59
2022/12/17 21:38:52;;;;;;;22.08;7.88;;;29.20;79.90;;;;;;5104466;28;20020;-55
2022/12/17 21:41:24;;;;;;;18.95;7.35;;;29.20;79.80;;;;;;5104014;28;20365;-54
2022/12/17 21:43:59;;;;;;;19.95;7.05;;;29.20;79.70;;;;;;5104448;28;20040;-52
2022/12/17 21:46:27;;;;;;;22.10;7.32;;;29.20;80.00;;;;;;5104292;28;20030;-53
2022/12/17 21:48:58;;;;;;;24.35;7.85;;;29.20;79.70;;;;;;5103668;28;20067;-52
2022/12/17 21:51:26;;;;;;;22.63;7.55;;;29.20;79.90;;;;;;5103691;28;20056;-53
2022/12/17 21:53:59;;;;;;;21.92;6.97;;;29.20;79.90;;;;;;5104415;28;20020;-53
2022/12/17 21:56:27;;;;;;;22.05;7.50;;;29.20;80.00;;;;;;5103890;28;20091;-53
2022/12/17 21:58:58;;;;;;;21.33;7.60;;;29.20;80.00;;;;;;5104496;28;20028;-56
2022/12/17 22:01:28;;;;;;;20.77;7.15;;;29.20;80.00;;;;;;5103989;28;20016;-54
2022/12/17 22:03:56;;;;;;;15.98;7.47;;;29.20;80.00;;;;;;5104568;28;20034;-52
2022/12/17 22:06:25;;;;;;;18.13;7.38;;;29.10;80.10;;;;;;5103673;28;20036;-52
2022/12/17 22:08:53;;;;;;;17.40;7.00;;;29.10;80.10;;;;;;5104179;28;20036;-53
2022/12/17 22:11:22;;;;;;;17.77;7.38;;;29.10;80.00;;;;;;5103875;28;20076;-54
2022/12/17 22:14:12;;;;;;;20.75;7.63;;;29.10;80.90;;;;;;5104262;28;20374;-53
2022/12/17 22:16:45;;;;;;;17.35;7.15;;;29.10;80.40;;;;;;5103138;28;20099;-49
2022/12/17 22:19:21;;;;;;;23.33;7.43;;;29.10;80.60;;;;;;5103648;28;20032;-53
2022/12/17 22:21:48;;;;;;;16.92;7.18;;;29.10;80.50;;;;;;5103614;28;20129;-53
2022/12/17 22:24:18;;;;;;;30.02;7.95;;;29.00;80.80;;;;;;5103487;28;20035;-53
2022/12/17 22:26:46;;;;;;;29.27;7.80;;;29.00;81.00;;;;;;5103860;28;20065;-53
2022/12/17 22:32:58;;;;;;;28.67;8.73;;;29.00;81.50;;;;;;5103644;28;20024;-52
2022/12/17 22:34:45;;;;;;;50.05;9.55;;;29.00;82.40;;;;;;5105340;28;20264;-53
2022/12/17 22:37:12;;;;;;;50.80;9.93;;;28.90;82.70;;;;;;5107451;28;20308;-53
2022/12/17 22:39:39;;;;;;;42.08;9.63;;;28.90;83.20;;;;;;5106301;28;20027;-52
2022/12/17 22:44:50;;;;;;;44.25;9.57;;;28.90;84.20;;;;;;5107283;28;20263;-53
2022/12/17 22:47:17;;;;;;;41.50;9.57;;;28.80;84.40;;;;;;5106767;28;20270;-55
2022/12/17 22:49:43;;;;;;;41.05;10.13;;;28.80;84.70;;;;;;5107033;28;20308;-54
2022/12/17 22:52:10;;;;;;;34.50;9.43;;;28.80;85.10;;;;;;5107145;28;20042;-53
2022/12/17 22:54:36;;;;;;;34.75;9.38;;;28.80;85.50;;;;;;5107013;28;20344;-53
2022/12/17 22:57:03;;;;;;;38.05;9.75;;;28.70;85.10;;;;;;5107094;28;20312;-53
2022/12/17 22:59:30;;;;;;;36.25;10.95;;;28.70;85.40;;;;;;5105767;28;20031;-55
2022/12/17 23:01:56;;;;;;;31.52;10.13;;;28.70;85.60;;;;;;5106772;28;20319;-54
2022/12/17 23:04:23;;;;;;;31.95;11.15;;;28.70;86.10;;;;;;5106846;28;20031;-54
2022/12/17 23:06:49;;;;;;;41.75;12.13;;;28.70;86.30;;;;;;5106607;28;20044;-53
2022/12/17 23:09:22;;;;;;;48.20;13.88;;;28.60;86.60;;;;;;5106633;28;20016;-55
2022/12/17 23:11:49;;;;;;;46.72;14.65;;;28.60;87.00;;;;;;5106836;28;20031;-54
2022/12/17 23:14:16;;;;;;;64.55;17.17;;;28.60;87.20;;;;;;5106772;28;20024;-57
2022/12/17 23:16:44;;;;;;;65.93;18.05;;;28.60;87.40;;;;;;5106458;28;20087;-58
2022/12/17 23:19:10;;;;;;;56.50;18.70;;;28.50;87.50;;;;;;5105398;28;20387;-56
2022/12/17 23:21:37;;;;;;;65.90;17.60;;;28.50;88.00;;;;;;5106641;28;20223;-53
2022/12/17 23:24:05;;;;;;;59.47;17.55;;;28.50;88.30;;;;;;5106337;28;20059;-53
2022/12/17 23:26:37;;;;;;;48.75;16.15;;;28.50;88.70;;;;;;5106471;28;20035;-53
2022/12/17 23:29:07;;;;;;;59.78;15.85;;;28.40;88.80;;;;;;5106352;28;20213;-53
2022/12/17 23:31:38;;;;;;;54.55;15.63;;;28.40;88.90;;;;;;5106158;28;20098;-53
2022/12/17 23:34:05;;;;;;;57.78;17.92;;;28.40;89.10;;;;;;5106259;28;20086;-53
2022/12/17 23:36:32;;;;;;;58.03;18.90;;;28.40;89.30;;;;;;5106285;28;20402;-56
2022/12/17 23:38:59;;;;;;;51.25;14.95;;;28.40;89.50;;;;;;5100350;28;20054;-53
2022/12/17 23:41:28;;;;;;;53.95;13.93;;;28.20;90.40;;;;;;5111535;28;20036;-55
2022/12/17 23:43:56;;;;;;;47.30;15.52;;;28.00;90.90;;;;;;5106552;28;20028;-56
2022/12/17 23:46:25;;;;;;;43.80;14.20;;;27.80;91.30;;;;;;5109103;28;20091;-57
2022/12/17 23:48:51;;;;;;;43.10;13.57;;;27.50;91.40;;;;;;5117189;28;20062;-55
2022/12/17 23:51:20;;;;;;;29.10;11.57;;;27.30;91.60;;;;;;5123338;28;20081;-55
2022/12/17 23:53:46;;;;;;;34.15;11.73;;;27.20;91.70;;;;;;5100117;28;20092;-56
2022/12/17 23:56:21;;;;;;;34.42;13.18;;;27.10;91.90;;;;;;5094095;28;20088;-55
2022/12/17 23:58:52;;;;;;;33.38;12.73;;;27.00;92.00;;;;;;5104929;28;20040;-53
